Time,TemperatureF,DewpointF,PressureIn,WindDirection,WindDirectionDegrees,WindSpeedMPH,WindSpeedGustMPH,Humidity,HourlyPrecipIn,Conditions,Clouds,dailyrainin,SolarRadiationWatts/m^2,SoftwareType,DateUTC
2013-07-25 00:01:00,59.3,55.1,29.94,WNW,302,0.0,0.0,86,0.00,,,0.00,0,WeatherCatV1.20B785,2013-07-25 04:01:00,
2013-07-25 00:06:00,59.2,55.0,29.94,WNW,302,0.0,0.0,86,0.00,,,0.00,0,WeatherCatV1.20B785,2013-07-25 04:06:00,
2013-07-25 00:11:00,59.0,54.8,29.94,WNW,302,0.0,0.0,86,0.00,,,0.00,0,WeatherCatV1.20B785,2013-07-25 04:11:00,
2013-07-25 00:16:00,58.9,54.7,29.94,WNW,302,0.0,0.0,86,0.00,,,0.00,0,WeatherCatV1.20B785,2013-07-25 04:16:00,
2013-07-25 00:21:00,58.8,54.6,29.94,WNW,302,0.0,0.0,86,0.00,,,0.00,0,WeatherCatV1.20B785,2013-07-25 04:21:00,
2013-07-25 00:26:00,58.6,54.4,29.94,WNW,302,0.0,0.0,86,0.00,,,0.00,0,WeatherCatV1.20B785,2013-07-25 04:26:00,
2013-07-25 00:31:00,58.5,54.3,29.94,WNW,302,0.0,0.0,86,0.00,,,0.00,0,WeatherCatV1.20B785,2013-07-25 04:31:00,
2013-07-25 00:36:00,58.5,54.3,29.94,WNW,302,0.0,0.0,86,0.00,,,0.00,0,WeatherCatV1.20B785,2013-07-25 04:36:00,
2013-07-25 00:41:00,58.4,54.2,29.94,WNW,302,0.0,0.0,86,0.00,,,0.00,0,WeatherCatV1.20B785,2013-07-25 04:41:00,
2013-07-25 00:46:00,58.4,53.9,29.94,WNW,302,0.0,0.0,85,0.00,,,0.00,0,WeatherCatV1.20B785,2013-07-25 04:46:00,
2013-07-25 00:51:00,58.4,53.9,29.94,WNW,302,0.0,0.0,85,0.00,,,0.00,0,WeatherCatV1.20B785,2013-07-25 04:51:00,
2013-07-25 00:56:00,58.4,53.9,29.94,WNW,302,0.0,0.0,85,0.00,,,0.00,0,WeatherCatV1.20B785,2013-07-25 04:56:00,
2013-07-25 01:01:00,58.3,54.1,29.94,WNW,302,0.0,0.0,86,0.00,,,0.00,0,WeatherCatV1.20B785,2013-07-25 05:01:00,
2013-07-25 01:06:00,58.2,54.0,29.94,WNW,302,0.0,0.0,86,0.00,,,0.00,0,WeatherCatV1.20B785,2013-07-25 05:06:00,
2013-07-25 01:11:00,58.2,54.0,29.94,WNW,302,0.0,0.0,86,0.00,,,0.00,0,WeatherCatV1.20B785,2013-07-25 05:11:00,
2013-07-25 01:16:00,58.1,53.9,29.94,WNW,302,0.0,1.0,86,0.00,,,0.00,0,WeatherCatV1.20B785,2013-07-25 05:16:00,
2013-07-25 01:21:00,57.9,53.7,29.94,WNW,302,0.0,0.0,86,0.00,,,0.00,0,WeatherCatV1.20B785,2013-07-25 05:21:00,
2013-07-25 01:26:00,57.9,53.7,29.94,WNW,302,0.0,0.0,86,0.00,,,0.00,0,WeatherCatV1.20B785,2013-07-25 05:26:00,
2013-07-25 01:31:00,57.8,53.6,29.94,WNW,302,0.0,0.0,86,0.00,,,0.00,0,WeatherCatV1.20B785,2013-07-25 05:31:00,
2013-07-25 01:36:00,57.7,53.5,29.94,WNW,302,0.0,1.0,86,0.00,,,0.00,0,WeatherCatV1.20B785,2013-07-25 05:36:00,
2013-07-25 01:41:00,57.6,53.4,29.94,WNW,302,0.0,0.0,86,0.00,,,0.00,0,WeatherCatV1.20B785,2013-07-25 05:41:00,
2013-07-25 01:46:00,57.5,53.3,29.94,WNW,302,0.0,0.0,86,0.00,,,0.00,0,WeatherCatV1.20B785,2013-07-25 05:46:00,
2013-07-25 01:51:00,57.4,53.2,29.94,WNW,302,0.0,0.0,86,0.00,,,0.00,0,WeatherCatV1.20B785,2013-07-25 05:51:00,
2013-07-25 01:56:00,57.3,52.8,29.93,WNW,302,0.0,0.0,85,0.00,,,0.00,0,WeatherCatV1.20B785,2013-07-25 05:56:00,
2013-07-25 02:02:00,57.4,52.9,29.93,WNW,302,0.0,0.0,85,0.00,,,0.00,0,WeatherCatV1.20B785,2013-07-25 06:02:00,
2013-07-25 02:07:00,57.4,52.9,29.93,WNW,302,0.0,0.0,85,0.00,,,0.00,0,WeatherCatV1.20B785,2013-07-25 06:07:00,
2013-07-25 02:12:00,57.5,53.0,29.93,WNW,302,0.0,0.0,85,0.00,,,0.00,0,WeatherCatV1.20B785,2013-07-25 06:12:00,
2013-07-25 02:17:00,57.6,53.1,29.94,WNW,302,0.0,0.0,85,0.00,,,0.00,0,WeatherCatV1.20B785,2013-07-25 06:17:00,
2013-07-25 02:22:00,57.5,53.0,29.94,WNW,302,0.0,0.0,85,0.00,,,0.00,0,WeatherCatV1.20B785,2013-07-25 06:22:00,
2013-07-25 02:27:00,57.4,52.9,29.95,WNW,302,0.0,0.0,85,0.00,,,0.00,0,WeatherCatV1.20B785,2013-07-25 06:27:00,
2013-07-25 02:32:00,57.3,52.8,29.94,WNW,302,0.0,0.0,85,0.00,,,0.00,0,WeatherCatV1.20B785,2013-07-25 06:32:00,
2013-07-25 02:37:00,57.1,52.6,29.95,WNW,302,0.0,0.0,85,0.00,,,0.00,0,WeatherCatV1.20B785,2013-07-25 06:37:00,
2013-07-25 02:42:00,56.9,52.4,29.94,WNW,302,0.0,0.0,85,0.00,,,0.00,0,WeatherCatV1.20B785,2013-07-25 06:42:00,
2013-07-25 02:47:00,56.9,52.4,29.94,WNW,302,0.0,0.0,85,0.00,,,0.00,0,WeatherCatV1.20B785,2013-07-25 06:47:00,
2013-07-25 02:52:00,56.8,52.3,29.94,WNW,302,0.0,0.0,85,0.00,,,0.00,0,WeatherCatV1.20B785,2013-07-25 06:52:00,
2013-07-25 02:55:00,56.8,52.3,29.94,WNW,302,0.0,0.0,85,0.00,,,0.00,0,WeatherCatV1.20B785,2013-07-25 06:55:00,
2013-07-25 02:57:00,56.7,52.2,29.94,WNW,302,0.0,0.0,85,0.00,,,0.00,0,WeatherCatV1.20B785,2013-07-25 06:57:00,
2013-07-25 03:02:00,56.6,52.1,29.95,WNW,302,0.0,0.0,85,0.00,,,0.00,0,WeatherCatV1.20B785,2013-07-25 07:02:00,
2013-07-25 03:07:00,56.5,52.0,29.95,WNW,302,0.0,0.0,85,0.00,,,0.00,0,WeatherCatV1.20B785,2013-07-25 07:07:00,
2013-07-25 03:12:00,56.5,52.0,29.95,WNW,302,0.0,0.0,85,0.00,,,0.00,0,WeatherCatV1.20B785,2013-07-25 07:12:00,
2013-07-25 03:17:00,56.4,51.9,29.95,WNW,302,0.0,0.0,85,0.00,,,0.00,0,WeatherCatV1.20B785,2013-07-25 07:17:00,
2013-07-25 03:22:00,56.3,51.8,29.95,WNW,302,0.0,0.0,85,0.00,,,0.00,0,WeatherCatV1.20B785,2013-07-25 07:22:00,
2013-07-25 03:27:00,56.2,51.8,29.95,WNW,302,0.0,0.0,85,0.00,,,0.00,0,WeatherCatV1.20B785,2013-07-25 07:27:00,
2013-07-25 03:32:00,56.2,51.8,29.95,WNW,302,0.0,0.0,85,0.00,,,0.00,0,WeatherCatV1.20B785,2013-07-25 07:32:00,
2013-07-25 03:37:00,56.2,51.8,29.95,WNW,302,0.0,0.0,85,0.00,,,0.00,0,WeatherCatV1.20B785,2013-07-25 07:37:00,
2013-07-25 03:42:00,56.2,51.8,29.95,WNW,302,0.0,0.0,85,0.00,,,0.00,0,WeatherCatV1.20B785,2013-07-25 07:42:00,
2013-07-25 03:47:00,56.1,51.7,29.96,WNW,302,0.0,0.0,85,0.00,,,0.00,0,WeatherCatV1.20B785,2013-07-25 07:47:00,
2013-07-25 03:52:00,56.1,51.7,29.96,WNW,302,0.0,0.0,85,0.00,,,0.00,0,WeatherCatV1.20B785,2013-07-25 07:52:00,
2013-07-25 03:57:00,56.0,51.5,29.96,WNW,302,0.0,0.0,85,0.00,,,0.00,0,WeatherCatV1.20B785,2013-07-25 07:57:00,
2013-07-25 04:02:00,56.0,51.5,29.96,WNW,302,0.0,0.0,85,0.00,,,0.00,0,WeatherCatV1.20B785,2013-07-25 08:02:00,
2013-07-25 04:07:00,56.0,51.5,29.96,WNW,302,0.0,0.0,85,0.00,,,0.00,0,WeatherCatV1.20B785,2013-07-25 08:07:00,
2013-07-25 04:12:00,56.0,51.5,29.96,WNW,302,0.0,0.0,85,0.00,,,0.00,0,WeatherCatV1.20B785,2013-07-25 08:12:00,
2013-07-25 04:17:00,56.0,51.5,29.96,WNW,302,0.0,0.0,85,0.00,,,0.00,0,WeatherCatV1.20B785,2013-07-25 08:17:00,
2013-07-25 04:22:00,56.0,51.5,29.96,WNW,302,0.0,0.0,85,0.00,,,0.00,0,WeatherCatV1.20B785,2013-07-25 08:22:00,
2013-07-25 04:27:00,55.9,51.5,29.96,WNW,302,0.0,0.0,85,0.00,,,0.00,0,WeatherCatV1.20B785,2013-07-25 08:27:00,
2013-07-25 04:32:00,55.9,51.5,29.96,WNW,302,0.0,0.0,85,0.00,,,0.00,0,WeatherCatV1.20B785,2013-07-25 08:32:00,
2013-07-25 04:37:00,55.8,51.4,29.97,WNW,302,0.0,0.0,85,0.00,,,0.00,0,WeatherCatV1.20B785,2013-07-25 08:37:00,
2013-07-25 04:42:00,55.8,51.4,29.97,WNW,302,0.0,0.0,85,0.00,,,0.00,0,WeatherCatV1.20B785,2013-07-25 08:42:00,
2013-07-25 04:47:00,55.8,51.4,29.97,NNE,17,0.0,0.0,85,0.00,,,0.00,0,WeatherCatV1.20B785,2013-07-25 08:47:00,
2013-07-25 04:52:00,55.7,51.3,29.96,NE,47,0.0,0.0,85,0.00,,,0.00,0,WeatherCatV1.20B785,2013-07-25 08:52:00,
2013-07-25 04:57:00,55.7,51.6,29.96,NNE,12,0.0,0.0,86,0.00,,,0.00,0,WeatherCatV1.20B785,2013-07-25 08:57:00,
2013-07-25 05:02:00,55.6,51.5,29.96,ENE,78,0.0,0.0,86,0.00,,,0.00,0,WeatherCatV1.20B785,2013-07-25 09:02:00,
2013-07-25 05:07:00,55.5,51.4,29.96,ENE,70,0.0,0.0,86,0.00,,,0.00,0,WeatherCatV1.20B785,2013-07-25 09:07:00,
2013-07-25 05:12:00,55.4,51.3,29.97,ENE,70,0.0,1.0,86,0.00,,,0.00,0,WeatherCatV1.20B785,2013-07-25 09:12:00,
2013-07-25 05:18:00,55.3,51.2,29.97,ENE,70,0.0,0.0,86,0.00,,,0.00,0,WeatherCatV1.20B785,2013-07-25 09:18:00,
2013-07-25 05:23:00,55.3,51.2,29.97,ENE,70,0.0,0.0,86,0.00,,,0.00,0,WeatherCatV1.20B785,2013-07-25 09:23:00,
2013-07-25 05:28:00,55.1,51.0,29.97,ENE,70,0.0,0.0,86,0.00,,,0.00,0,WeatherCatV1.20B785,2013-07-25 09:28:00,
2013-07-25 05:33:00,55.0,50.9,29.97,ENE,70,0.0,0.0,86,0.00,,,0.00,0,WeatherCatV1.20B785,2013-07-25 09:33:00,
2013-07-25 05:38:00,54.9,50.8,29.98,ENE,70,0.0,0.0,86,0.00,,,0.00,0,WeatherCatV1.20B785,2013-07-25 09:38:00,
2013-07-25 05:43:00,54.9,50.8,29.99,ENE,70,0.0,0.0,86,0.00,,,0.00,0,WeatherCatV1.20B785,2013-07-25 09:43:00,
2013-07-25 05:48:00,54.8,50.7,29.99,ENE,70,0.0,0.0,86,0.00,,,0.00,0,WeatherCatV1.20B785,2013-07-25 09:48:00,
2013-07-25 05:53:00,54.7,50.6,29.99,ENE,70,0.0,0.0,86,0.00,,,0.00,0,WeatherCatV1.20B785,2013-07-25 09:53:00,
2013-07-25 05:58:00,54.6,50.5,29.99,ENE,70,0.0,0.0,86,0.00,,,0.00,0,WeatherCatV1.20B785,2013-07-25 09:58:00,
2013-07-25 06:03:00,54.6,50.5,29.99,ENE,70,0.0,1.0,86,0.00,,,0.00,0,WeatherCatV1.20B785,2013-07-25 10:03:00,
2013-07-25 06:08:00,54.5,50.4,29.99,ENE,70,0.0,0.0,86,0.00,,,0.00,5,WeatherCatV1.20B785,2013-07-25 10:08:00,
2013-07-25 06:13:00,54.4,50.3,29.99,ENE,70,0.0,1.0,86,0.00,,,0.00,7,WeatherCatV1.20B785,2013-07-25 10:13:00,
2013-07-25 06:18:00,54.2,50.1,29.99,ENE,70,0.0,1.0,86,0.00,,,0.00,12,WeatherCatV1.20B785,2013-07-25 10:18:00,
2013-07-25 06:23:00,54.1,50.0,29.99,NE,50,1.0,1.0,86,0.00,,,0.00,14,WeatherCatV1.20B785,2013-07-25 10:23:00,
2013-07-25 06:28:00,54.1,50.0,29.99,NE,50,0.0,0.0,86,0.00,,,0.00,11,WeatherCatV1.20B785,2013-07-25 10:28:00,
2013-07-25 06:33:00,54.2,49.8,29.99,NE,50,0.0,0.0,85,0.00,,,0.00,9,WeatherCatV1.20B785,2013-07-25 10:33:00,
2013-07-25 06:38:00,54.2,49.8,29.99,NE,41,0.0,0.0,85,0.00,,,0.00,12,WeatherCatV1.20B785,2013-07-25 10:38:00,
2013-07-25 06:43:00,54.1,50.0,29.99,NE,41,0.0,0.0,86,0.00,,,0.00,16,WeatherCatV1.20B785,2013-07-25 10:43:00,
2013-07-25 06:48:00,54.1,49.7,29.99,NE,41,0.0,0.0,85,0.00,,,0.00,21,WeatherCatV1.20B785,2013-07-25 10:48:00,
2013-07-25 06:53:00,54.2,49.8,29.99,NE,41,0.0,0.0,85,0.00,,,0.00,32,WeatherCatV1.20B785,2013-07-25 10:53:00,
2013-07-25 06:58:00,54.2,49.8,29.99,NE,41,0.0,0.0,85,0.00,,,0.00,35,WeatherCatV1.20B785,2013-07-25 10:58:00,
2013-07-25 07:03:00,54.3,49.9,29.99,NE,41,0.0,0.0,85,0.00,,,0.00,37,WeatherCatV1.20B785,2013-07-25 11:03:00,
2013-07-25 07:08:00,54.3,50.2,29.99,NE,41,0.0,0.0,86,0.00,,,0.00,51,WeatherCatV1.20B785,2013-07-25 11:08:00,
2013-07-25 07:13:00,54.4,50.0,30.00,NE,41,0.0,0.0,85,0.00,,,0.00,69,WeatherCatV1.20B785,2013-07-25 11:13:00,
2013-07-25 07:18:00,54.6,50.2,30.00,NE,41,0.0,0.0,85,0.00,,,0.00,77,WeatherCatV1.20B785,2013-07-25 11:18:00,
2013-07-25 07:23:00,54.8,50.4,30.00,NE,41,0.0,0.0,85,0.00,,,0.00,81,WeatherCatV1.20B785,2013-07-25 11:23:00,
2013-07-25 07:28:00,55.1,50.7,30.00,NE,41,0.0,0.0,85,0.00,,,0.00,90,WeatherCatV1.20B785,2013-07-25 11:28:00,
2013-07-25 07:33:00,55.3,50.9,29.99,NE,41,0.0,0.0,85,0.00,,,0.00,97,WeatherCatV1.20B785,2013-07-25 11:33:00,
2013-07-25 07:38:00,55.6,51.2,29.99,NE,41,0.0,0.0,85,0.00,,,0.00,97,WeatherCatV1.20B785,2013-07-25 11:38:00,
2013-07-25 07:43:00,55.9,51.5,29.99,NE,41,0.0,0.0,85,0.00,,,0.00,114,WeatherCatV1.20B785,2013-07-25 11:43:00,
2013-07-25 07:48:00,56.1,51.7,29.99,NE,41,0.0,0.0,85,0.00,,,0.00,104,WeatherCatV1.20B785,2013-07-25 11:48:00,
2013-07-25 07:53:00,56.3,51.8,30.00,NE,41,0.0,0.0,85,0.00,,,0.00,105,WeatherCatV1.20B785,2013-07-25 11:53:00,
2013-07-25 07:58:00,56.5,52.0,30.00,NE,41,0.0,0.0,85,0.00,,,0.00,120,WeatherCatV1.20B785,2013-07-25 11:58:00,
2013-07-25 08:03:00,56.7,52.6,30.00,NE,41,0.0,1.0,86,0.00,,,0.00,105,WeatherCatV1.20B785,2013-07-25 12:03:00,
2013-07-25 08:08:00,56.8,52.7,30.00,NE,41,0.0,0.0,86,0.00,,,0.00,120,WeatherCatV1.20B785,2013-07-25 12:08:00,
2013-07-25 08:13:00,57.0,52.8,30.00,NE,41,0.0,0.0,86,0.00,,,0.00,113,WeatherCatV1.20B785,2013-07-25 12:13:00,
2013-07-25 08:18:00,57.0,53.2,30.00,East,99,0.0,3.0,87,0.00,,,0.00,104,WeatherCatV1.20B785,2013-07-25 12:18:00,
2013-07-25 08:24:00,57.1,53.3,30.00,East,100,0.0,2.0,87,0.00,,,0.00,114,WeatherCatV1.20B785,2013-07-25 12:24:00,
2013-07-25 08:29:00,57.3,53.5,30.01,ESE,104,0.0,1.0,87,0.00,,,0.00,162,WeatherCatV1.20B785,2013-07-25 12:29:00,
2013-07-25 08:34:00,57.5,53.7,30.01,ESE,104,0.0,0.0,87,0.00,,,0.00,165,WeatherCatV1.20B785,2013-07-25 12:34:00,
2013-07-25 08:39:00,58.0,53.8,30.01,ESE,104,0.0,0.0,86,0.00,,,0.00,105,WeatherCatV1.20B785,2013-07-25 12:39:00,
2013-07-25 08:44:00,58.1,54.2,30.02,ESE,104,0.0,0.0,87,0.00,,,0.00,97,WeatherCatV1.20B785,2013-07-25 12:44:00,
2013-07-25 08:49:00,58.4,54.5,30.02,ESE,104,0.0,1.0,87,0.00,,,0.00,378,WeatherCatV1.20B785,2013-07-25 12:49:00,
2013-07-25 08:54:00,58.6,54.7,30.02,ESE,106,0.0,0.0,87,0.00,,,0.00,424,WeatherCatV1.20B785,2013-07-25 12:54:00,
2013-07-25 08:59:00,59.2,55.3,30.02,ESE,106,0.0,0.0,87,0.00,,,0.00,455,WeatherCatV1.20B785,2013-07-25 12:59:00,
2013-07-25 09:04:00,59.8,55.9,30.02,ENE,78,2.0,2.0,87,0.00,,,0.00,503,WeatherCatV1.20B785,2013-07-25 13:04:00,
2013-07-25 09:09:00,60.5,56.3,30.02,WNW,285,0.0,2.0,86,0.00,,,0.00,510,WeatherCatV1.20B785,2013-07-25 13:09:00,
2013-07-25 09:14:00,61.4,56.5,30.02,WNW,294,3.0,3.0,84,0.00,,,0.00,527,WeatherCatV1.20B785,2013-07-25 13:14:00,
2013-07-25 09:19:00,61.9,56.3,30.02,ENE,73,1.0,5.0,82,0.00,,,0.00,545,WeatherCatV1.20B785,2013-07-25 13:19:00,
2013-07-25 09:24:00,62.3,56.4,30.02,North,1,0.0,2.0,81,0.00,,,0.00,580,WeatherCatV1.20B785,2013-07-25 13:24:00,
2013-07-25 09:29:00,63.0,57.1,30.02,East,89,4.0,4.0,81,0.00,,,0.00,610,WeatherCatV1.20B785,2013-07-25 13:29:00,
2013-07-25 09:33:00,63.2,57.3,30.02,ESE,105,2.0,2.0,81,0.00,,,0.00,631,WeatherCatV1.20B785,2013-07-25 13:33:00,
2013-07-25 09:36:00,63.4,57.1,30.02,ENE,58,3.0,5.0,80,0.00,,,0.00,596,WeatherCatV1.20B785,2013-07-25 13:36:00,
2013-07-25 09:41:00,63.8,57.8,30.02,NE,56,2.0,3.0,81,0.00,,,0.00,654,WeatherCatV1.20B785,2013-07-25 13:41:00,
2013-07-25 09:46:00,64.4,56.3,30.02,WSW,246,1.0,5.0,75,0.00,,,0.00,671,WeatherCatV1.20B785,2013-07-25 13:46:00,
2013-07-25 09:51:00,64.5,56.4,30.02,NE,43,2.0,3.0,75,0.00,,,0.00,701,WeatherCatV1.20B785,2013-07-25 13:51:00,
2013-07-25 09:56:00,64.7,57.3,30.02,ENE,58,5.0,6.0,77,0.00,,,0.00,654,WeatherCatV1.20B785,2013-07-25 13:56:00,
2013-07-25 10:01:00,65.0,57.2,30.02,ENE,63,4.0,4.0,76,0.00,,,0.00,671,WeatherCatV1.20B785,2013-07-25 14:01:00,
2013-07-25 10:06:00,65.2,57.4,30.02,ENE,65,2.0,3.0,76,0.00,,,0.00,677,WeatherCatV1.20B785,2013-07-25 14:06:00,
2013-07-25 10:11:00,65.2,56.3,30.02,East,100,1.0,6.0,73,0.00,,,0.00,689,WeatherCatV1.20B785,2013-07-25 14:11:00,
2013-07-25 10:16:00,65.2,55.9,30.02,ESE,102,2.0,2.0,72,0.00,,,0.00,703,WeatherCatV1.20B785,2013-07-25 14:16:00,
2013-07-25 10:21:00,65.0,55.8,30.02,NE,46,0.0,2.0,72,0.00,,,0.00,717,WeatherCatV1.20B785,2013-07-25 14:21:00,
2013-07-25 10:26:00,65.6,58.2,30.02,East,98,0.0,1.0,77,0.00,,,0.00,729,WeatherCatV1.20B785,2013-07-25 14:26:00,
2013-07-25 10:31:00,66.3,57.8,30.02,East,90,1.0,4.0,74,0.00,,,0.00,742,WeatherCatV1.20B785,2013-07-25 14:31:00,
2013-07-25 10:36:00,66.5,56.8,30.02,NNE,24,0.0,1.0,71,0.00,,,0.00,758,WeatherCatV1.20B785,2013-07-25 14:36:00,
2013-07-25 10:41:00,67.0,57.7,30.02,NE,51,5.0,5.0,72,0.00,,,0.00,763,WeatherCatV1.20B785,2013-07-25 14:41:00,
2013-07-25 10:46:00,67.4,58.0,30.02,NW,323,0.0,3.0,72,0.00,,,0.00,779,WeatherCatV1.20B785,2013-07-25 14:46:00,
2013-07-25 10:51:00,67.9,57.7,30.02,NW,325,1.0,2.0,70,0.00,,,0.00,791,WeatherCatV1.20B785,2013-07-25 14:51:00,
2013-07-25 10:56:00,68.6,59.2,30.02,West,272,2.0,3.0,72,0.00,,,0.00,805,WeatherCatV1.20B785,2013-07-25 14:56:00,
2013-07-25 11:01:00,69.2,57.8,30.02,NNE,33,2.0,3.0,67,0.00,,,0.00,810,WeatherCatV1.20B785,2013-07-25 15:01:00,
2013-07-25 11:06:00,69.1,56.0,30.02,ESE,102,1.0,5.0,63,0.00,,,0.00,824,WeatherCatV1.20B785,2013-07-25 15:06:00,
2013-07-25 11:12:00,69.1,57.2,30.02,East,86,0.0,3.0,66,0.00,,,0.00,838,WeatherCatV1.20B785,2013-07-25 15:12:00,
2013-07-25 11:17:00,69.5,56.3,30.02,ENE,72,5.0,5.0,63,0.00,,,0.00,846,WeatherCatV1.20B785,2013-07-25 15:17:00,
2013-07-25 11:22:00,69.7,56.5,30.02,NE,56,4.0,4.0,63,0.00,,,0.00,854,WeatherCatV1.20B785,2013-07-25 15:22:00,
2013-07-25 11:27:00,69.8,57.1,30.02,East,92,2.0,2.0,64,0.00,,,0.00,865,WeatherCatV1.20B785,2013-07-25 15:27:00,
2013-07-25 11:32:00,70.1,56.0,30.02,ENE,58,4.0,6.0,61,0.00,,,0.00,874,WeatherCatV1.20B785,2013-07-25 15:32:00,
2013-07-25 11:37:00,69.9,56.7,30.02,East,100,3.0,5.0,63,0.00,,,0.00,881,WeatherCatV1.20B785,2013-07-25 15:37:00,
2013-07-25 11:42:00,69.7,57.4,30.02,NNE,17,3.0,4.0,65,0.00,,,0.00,888,WeatherCatV1.20B785,2013-07-25 15:42:00,
2013-07-25 11:47:00,69.9,56.7,30.02,East,90,1.0,2.0,63,0.00,,,0.00,898,WeatherCatV1.20B785,2013-07-25 15:47:00,
2013-07-25 11:52:00,70.3,58.8,30.02,NE,40,5.0,6.0,67,0.00,,,0.00,907,WeatherCatV1.20B785,2013-07-25 15:52:00,
2013-07-25 11:57:00,70.6,56.5,30.02,ESE,111,0.0,2.0,61,0.00,,,0.00,925,WeatherCatV1.20B785,2013-07-25 15:57:00,
2013-07-25 12:02:00,70.9,58.5,30.02,NNE,21,3.0,5.0,65,0.00,,,0.00,925,WeatherCatV1.20B785,2013-07-25 16:02:00,
2013-07-25 12:07:00,71.5,58.7,30.02,NNE,30,3.0,5.0,64,0.00,,,0.00,926,WeatherCatV1.20B785,2013-07-25 16:07:00,
2013-07-25 12:12:00,71.9,58.2,30.02,NNW,339,0.0,3.0,62,0.00,,,0.00,958,WeatherCatV1.20B785,2013-07-25 16:12:00,
2013-07-25 12:17:00,72.5,60.9,30.02,NNE,27,2.0,3.0,67,0.00,,,0.00,970,WeatherCatV1.20B785,2013-07-25 16:17:00,
2013-07-25 12:22:00,73.1,60.2,30.02,ESE,103,2.0,3.0,64,0.00,,,0.00,947,WeatherCatV1.20B785,2013-07-25 16:22:00,
2013-07-25 12:27:00,73.2,58.9,30.02,NE,44,3.0,5.0,61,0.00,,,0.00,1039,WeatherCatV1.20B785,2013-07-25 16:27:00,
2013-07-25 12:32:00,73.3,59.5,30.02,NW,314,5.0,5.0,62,0.00,,,0.00,1013,WeatherCatV1.20B785,2013-07-25 16:32:00,
2013-07-25 12:37:00,73.5,57.8,30.02,WNW,301,0.0,5.0,58,0.00,,,0.00,172,WeatherCatV1.20B785,2013-07-25 16:37:00,
2013-07-25 12:42:00,73.5,58.8,30.02,NE,34,0.0,3.0,60,0.00,,,0.00,956,WeatherCatV1.20B785,2013-07-25 16:42:00,
2013-07-25 12:47:00,73.7,58.9,30.02,NNE,17,0.0,3.0,60,0.00,,,0.00,986,WeatherCatV1.20B785,2013-07-25 16:47:00,
2013-07-25 12:52:00,73.9,57.7,30.02,ENE,58,6.0,6.0,57,0.00,,,0.00,1018,WeatherCatV1.20B785,2013-07-25 16:52:00,
2013-07-25 12:57:00,73.9,60.5,30.01,ENE,73,4.0,5.0,63,0.00,,,0.00,981,WeatherCatV1.20B785,2013-07-25 16:57:00,
2013-07-25 13:02:00,74.2,58.5,30.01,NNW,331,3.0,5.0,58,0.00,,,0.00,954,WeatherCatV1.20B785,2013-07-25 17:02:00,
2013-07-25 13:07:00,74.4,58.6,30.01,WNW,302,3.0,5.0,58,0.00,,,0.00,967,WeatherCatV1.20B785,2013-07-25 17:07:00,
2013-07-25 13:12:00,74.3,59.0,30.00,NNW,334,2.0,4.0,59,0.00,,,0.00,972,WeatherCatV1.20B785,2013-07-25 17:12:00,
2013-07-25 13:17:00,74.6,59.3,30.00,ENE,69,3.0,3.0,59,0.00,,,0.00,969,WeatherCatV1.20B785,2013-07-25 17:17:00,
2013-07-25 13:22:00,74.6,57.8,30.00,NE,34,2.0,4.0,56,0.00,,,0.00,970,WeatherCatV1.20B785,2013-07-25 17:22:00,
2013-07-25 13:27:00,74.7,59.4,30.00,NW,305,1.0,5.0,59,0.00,,,0.00,970,WeatherCatV1.20B785,2013-07-25 17:27:00,
2013-07-25 13:32:00,75.1,60.2,30.00,WNW,299,1.0,4.0,60,0.00,,,0.00,886,WeatherCatV1.20B785,2013-07-25 17:32:00,
2013-07-25 13:37:00,74.9,59.6,30.00,NNW,331,3.0,5.0,59,0.00,,,0.00,970,WeatherCatV1.20B785,2013-07-25 17:37:00,
2013-07-25 13:42:00,75.0,58.7,30.00,NNW,327,1.0,1.0,57,0.00,,,0.00,875,WeatherCatV1.20B785,2013-07-25 17:42:00,
2013-07-25 13:47:00,75.2,58.4,30.00,NNE,29,4.0,4.0,56,0.00,,,0.00,174,WeatherCatV1.20B785,2013-07-25 17:47:00,
2013-07-25 13:52:00,75.2,58.4,30.00,NW,312,0.0,4.0,56,0.00,,,0.00,67,WeatherCatV1.20B785,2013-07-25 17:52:00,
2013-07-25 13:57:00,75.0,56.2,30.00,ENE,60,2.0,4.0,52,0.00,,,0.00,355,WeatherCatV1.20B785,2013-07-25 17:57:00,
2013-07-25 14:02:00,74.7,58.4,30.00,NE,38,3.0,9.0,57,0.00,,,0.00,877,WeatherCatV1.20B785,2013-07-25 18:02:00,
2013-07-25 14:07:00,74.6,56.8,30.00,ENE,57,0.0,3.0,54,0.00,,,0.00,953,WeatherCatV1.20B785,2013-07-25 18:07:00,
2013-07-25 14:12:00,74.9,59.6,30.00,East,94,0.0,4.0,59,0.00,,,0.00,947,WeatherCatV1.20B785,2013-07-25 18:12:00,
2013-07-25 14:17:00,75.3,58.0,30.00,NNE,31,0.0,6.0,55,0.00,,,0.00,940,WeatherCatV1.20B785,2013-07-25 18:17:00,
2013-07-25 14:23:00,75.5,58.2,30.00,NW,321,2.0,5.0,55,0.00,,,0.00,926,WeatherCatV1.20B785,2013-07-25 18:23:00,
2013-07-25 14:28:00,75.7,57.3,30.00,ESE,110,3.0,5.0,53,0.00,,,0.00,130,WeatherCatV1.20B785,2013-07-25 18:28:00,
2013-07-25 14:33:00,75.4,55.5,30.00,East,96,1.0,6.0,50,0.00,,,0.00,926,WeatherCatV1.20B785,2013-07-25 18:33:00,
2013-07-25 14:38:00,75.2,56.3,30.00,ESE,123,3.0,5.0,52,0.00,,,0.00,919,WeatherCatV1.20B785,2013-07-25 18:38:00,
2013-07-25 14:43:00,75.4,59.6,30.00,ENE,60,4.0,4.0,58,0.00,,,0.00,916,WeatherCatV1.20B785,2013-07-25 18:43:00,
2013-07-25 14:48:00,75.4,58.1,30.00,WNW,293,0.0,2.0,55,0.00,,,0.00,909,WeatherCatV1.20B785,2013-07-25 18:48:00,
2013-07-25 14:53:00,75.8,59.0,30.00,NE,46,1.0,5.0,56,0.00,,,0.00,902,WeatherCatV1.20B785,2013-07-25 18:53:00,
2013-07-25 14:58:00,75.8,57.4,30.00,WNW,290,1.0,4.0,53,0.00,,,0.00,896,WeatherCatV1.20B785,2013-07-25 18:58:00,
2013-07-25 15:03:00,76.1,56.6,30.00,ENE,62,2.0,4.0,51,0.00,,,0.00,884,WeatherCatV1.20B785,2013-07-25 19:03:00,
2013-07-25 15:08:00,75.8,56.9,30.00,East,92,1.0,3.0,52,0.00,,,0.00,877,WeatherCatV1.20B785,2013-07-25 19:08:00,
2013-07-25 15:13:00,75.9,59.5,30.00,SE,142,2.0,4.0,57,0.00,,,0.00,875,WeatherCatV1.20B785,2013-07-25 19:13:00,
2013-07-25 15:18:00,76.1,60.2,29.99,NNE,17,1.0,6.0,58,0.00,,,0.00,863,WeatherCatV1.20B785,2013-07-25 19:18:00,
2013-07-25 15:23:00,76.4,57.5,29.99,NE,35,4.0,7.0,52,0.00,,,0.00,853,WeatherCatV1.20B785,2013-07-25 19:23:00,
2013-07-25 15:28:00,76.4,56.9,29.99,ENE,64,1.0,5.0,51,0.00,,,0.00,844,WeatherCatV1.20B785,2013-07-25 19:28:00,
2013-07-25 15:33:00,76.7,56.6,29.99,ENE,67,3.0,5.0,50,0.00,,,0.00,831,WeatherCatV1.20B785,2013-07-25 19:33:00,
2013-07-25 15:38:00,77.0,58.5,30.00,ESE,117,1.0,4.0,53,0.00,,,0.00,823,WeatherCatV1.20B785,2013-07-25 19:38:00,
2013-07-25 15:43:00,77.0,58.0,29.99,East,79,1.0,5.0,52,0.00,,,0.00,812,WeatherCatV1.20B785,2013-07-25 19:43:00,
2013-07-25 15:48:00,76.7,56.1,29.99,NNW,348,1.0,2.0,49,0.00,,,0.00,796,WeatherCatV1.20B785,2013-07-25 19:48:00,
2013-07-25 15:53:00,76.7,56.6,29.99,SSE,163,2.0,5.0,50,0.00,,,0.00,789,WeatherCatV1.20B785,2013-07-25 19:53:00,
2013-07-25 15:58:00,76.9,57.4,29.99,ENE,76,2.0,6.0,51,0.00,,,0.00,779,WeatherCatV1.20B785,2013-07-25 19:58:00,
2013-07-25 16:03:00,77.2,58.2,29.99,North,351,0.0,4.0,52,0.00,,,0.00,768,WeatherCatV1.20B785,2013-07-25 20:03:00,
2013-07-25 16:08:00,77.5,56.8,29.99,NE,44,1.0,2.0,49,0.00,,,0.00,754,WeatherCatV1.20B785,2013-07-25 20:08:00,
2013-07-25 16:13:00,77.3,57.7,29.99,ESE,107,5.0,8.0,51,0.00,,,0.00,740,WeatherCatV1.20B785,2013-07-25 20:13:00,
2013-07-25 16:20:00,76.5,56.5,29.99,NE,34,5.0,6.0,50,0.00,,,0.00,724,WeatherCatV1.20B785,2013-07-25 20:20:00,
2013-07-25 16:21:00,76.5,58.1,29.99,ENE,73,1.0,7.0,53,0.00,,,0.00,721,WeatherCatV1.20B785,2013-07-25 20:21:00,
2013-07-25 16:25:00,76.5,57.0,29.99,NE,53,5.0,6.0,51,0.00,,,0.00,710,WeatherCatV1.20B785,2013-07-25 20:25:00,
2013-07-25 16:26:00,76.5,58.6,29.99,ENE,59,1.0,6.0,54,0.00,,,0.00,707,WeatherCatV1.20B785,2013-07-25 20:26:00,
2013-07-25 16:31:00,76.6,60.2,29.99,East,85,2.0,3.0,57,0.00,,,0.00,696,WeatherCatV1.20B785,2013-07-25 20:31:00,
2013-07-25 16:36:00,77.1,59.2,29.99,West,270,1.0,6.0,54,0.00,,,0.00,686,WeatherCatV1.20B785,2013-07-25 20:36:00,
2013-07-25 16:41:00,77.8,59.3,29.99,NNE,12,0.0,5.0,53,0.00,,,0.00,673,WeatherCatV1.20B785,2013-07-25 20:41:00,
2013-07-25 16:45:00,78.2,60.2,29.99,NE,43,1.0,3.0,54,0.00,,,0.00,661,WeatherCatV1.20B785,2013-07-25 20:45:00,
2013-07-25 16:46:00,78.2,59.1,29.99,NW,323,3.0,3.0,52,0.00,,,0.00,656,WeatherCatV1.20B785,2013-07-25 20:46:00,
2013-07-25 16:51:00,78.3,58.7,29.99,ESE,104,3.0,4.0,51,0.00,,,0.00,642,WeatherCatV1.20B785,2013-07-25 20:51:00,
2013-07-25 16:56:00,77.6,57.5,29.99,East,94,3.0,6.0,50,0.00,,,0.00,628,WeatherCatV1.20B785,2013-07-25 20:56:00,
2013-07-25 17:01:00,76.8,57.8,29.99,ENE,62,1.0,2.0,52,0.00,,,0.00,612,WeatherCatV1.20B785,2013-07-25 21:01:00,
2013-07-25 17:06:00,76.8,58.3,29.99,SE,125,0.0,1.0,53,0.00,,,0.00,596,WeatherCatV1.20B785,2013-07-25 21:06:00,
2013-07-25 17:11:00,76.9,58.4,29.99,NE,54,2.0,3.0,53,0.00,,,0.00,584,WeatherCatV1.20B785,2013-07-25 21:11:00,
2013-07-25 17:16:00,77.0,58.5,29.99,NE,48,1.0,1.0,53,0.00,,,0.00,577,WeatherCatV1.20B785,2013-07-25 21:16:00,
2013-07-25 17:21:00,77.3,57.7,29.99,East,80,2.0,5.0,51,0.00,,,0.00,550,WeatherCatV1.20B785,2013-07-25 21:21:00,
2013-07-25 17:26:00,77.3,57.2,29.99,East,92,3.0,4.0,50,0.00,,,0.00,534,WeatherCatV1.20B785,2013-07-25 21:26:00,
2013-07-25 17:31:00,77.2,58.2,29.99,NE,56,2.0,5.0,52,0.00,,,0.00,526,WeatherCatV1.20B785,2013-07-25 21:31:00,
2013-07-25 17:36:00,76.9,57.4,29.99,North,354,0.0,3.0,51,0.00,,,0.00,496,WeatherCatV1.20B785,2013-07-25 21:36:00,
2013-07-25 17:41:00,77.1,58.1,29.99,North,354,0.0,3.0,52,0.00,,,0.00,485,WeatherCatV1.20B785,2013-07-25 21:41:00,
2013-07-25 17:46:00,77.4,57.3,29.99,WNW,298,1.0,3.0,50,0.00,,,0.00,473,WeatherCatV1.20B785,2013-07-25 21:46:00,
2013-07-25 17:51:00,77.8,58.2,29.99,North,352,1.0,1.0,51,0.00,,,0.00,464,WeatherCatV1.20B785,2013-07-25 21:51:00,
2013-07-25 17:56:00,77.8,58.2,29.99,NE,50,1.0,2.0,51,0.00,,,0.00,434,WeatherCatV1.20B785,2013-07-25 21:56:00,
2013-07-25 18:02:00,77.5,56.8,29.99,NE,52,0.0,3.0,49,0.00,,,0.00,417,WeatherCatV1.20B785,2013-07-25 22:02:00,
2013-07-25 18:07:00,77.3,57.2,29.99,NE,40,3.0,5.0,50,0.00,,,0.00,396,WeatherCatV1.20B785,2013-07-25 22:07:00,
2013-07-25 18:12:00,77.3,57.7,29.99,NW,323,1.0,3.0,51,0.00,,,0.00,380,WeatherCatV1.20B785,2013-07-25 22:12:00,
2013-07-25 18:17:00,77.1,58.6,29.99,WNW,301,3.0,3.0,53,0.00,,,0.00,88,WeatherCatV1.20B785,2013-07-25 22:17:00,
2013-07-25 18:22:00,76.9,58.4,30.00,NNE,31,1.0,2.0,53,0.00,,,0.00,329,WeatherCatV1.20B785,2013-07-25 22:22:00,
2013-07-25 18:27:00,76.6,56.5,30.00,NE,48,2.0,2.0,50,0.00,,,0.00,47,WeatherCatV1.20B785,2013-07-25 22:27:00,
2013-07-25 18:33:00,76.1,56.6,30.00,NNE,25,0.0,3.0,51,0.00,,,0.00,47,WeatherCatV1.20B785,2013-07-25 22:33:00,
2013-07-25 18:36:00,76.0,58.1,30.00,NNW,333,1.0,1.0,54,0.00,,,0.00,46,WeatherCatV1.20B785,2013-07-25 22:36:00,
2013-07-25 18:41:00,75.8,57.4,30.00,North,2,0.0,1.0,53,0.00,,,0.00,42,WeatherCatV1.20B785,2013-07-25 22:41:00,
2013-07-25 18:46:00,75.8,58.5,30.00,NW,307,0.0,1.0,55,0.00,,,0.00,47,WeatherCatV1.20B785,2013-07-25 22:46:00,
2013-07-25 18:51:00,75.6,57.8,30.00,WSW,254,1.0,2.0,54,0.00,,,0.00,39,WeatherCatV1.20B785,2013-07-25 22:51:00,
2013-07-25 18:56:00,75.4,58.6,30.01,WNW,301,0.0,1.0,56,0.00,,,0.00,37,WeatherCatV1.20B785,2013-07-25 22:56:00,
2013-07-25 19:01:00,75.3,58.0,30.01,North,7,0.0,1.0,55,0.00,,,0.00,37,WeatherCatV1.20B785,2013-07-25 23:01:00,
2013-07-25 19:06:00,75.2,57.9,30.01,WNW,300,0.0,2.0,55,0.00,,,0.00,33,WeatherCatV1.20B785,2013-07-25 23:06:00,
2013-07-25 19:11:00,75.0,58.2,30.01,NNW,341,0.0,1.0,56,0.00,,,0.00,33,WeatherCatV1.20B785,2013-07-25 23:11:00,
2013-07-25 19:16:00,74.7,59.9,30.01,NNW,340,0.0,0.0,60,0.00,,,0.00,32,WeatherCatV1.20B785,2013-07-25 23:16:00,
2013-07-25 19:21:00,74.5,60.2,30.01,NNW,340,0.0,0.0,61,0.00,,,0.00,32,WeatherCatV1.20B785,2013-07-25 23:21:00,
2013-07-25 19:26:00,74.2,59.4,30.01,North,2,1.0,1.0,60,0.00,,,0.00,28,WeatherCatV1.20B785,2013-07-25 23:26:00,
2013-07-25 19:31:00,73.9,58.7,30.01,NE,46,2.0,3.0,59,0.00,,,0.00,26,WeatherCatV1.20B785,2013-07-25 23:31:00,
2013-07-25 19:36:00,73.7,61.2,30.01,NE,46,0.0,0.0,65,0.00,,,0.00,26,WeatherCatV1.20B785,2013-07-25 23:36:00,
2013-07-25 19:41:00,73.6,62.8,30.01,NE,46,0.0,1.0,69,0.00,,,0.00,23,WeatherCatV1.20B785,2013-07-25 23:41:00,
2013-07-25 19:46:00,73.3,62.5,30.01,NW,323,0.0,1.0,69,0.00,,,0.00,21,WeatherCatV1.20B785,2013-07-25 23:46:00,
2013-07-25 19:52:00,72.8,62.4,30.01,NW,323,1.0,1.0,70,0.00,,,0.00,19,WeatherCatV1.20B785,2013-07-25 23:52:00,
2013-07-25 19:57:00,72.4,62.0,30.01,NW,323,0.0,1.0,70,0.00,,,0.00,18,WeatherCatV1.20B785,2013-07-25 23:57:00,
2013-07-25 20:02:00,72.0,62.5,30.01,NW,322,0.0,1.0,72,0.00,,,0.00,14,WeatherCatV1.20B785,2013-07-26 00:02:00,
2013-07-25 20:07:00,71.5,62.0,30.02,NW,322,0.0,1.0,72,0.00,,,0.00,12,WeatherCatV1.20B785,2013-07-26 00:07:00,
2013-07-25 20:12:00,71.0,61.5,30.02,NW,322,0.0,0.0,72,0.00,,,0.00,11,WeatherCatV1.20B785,2013-07-26 00:12:00,
2013-07-25 20:17:00,70.4,60.5,30.02,NW,322,0.0,0.0,71,0.00,,,0.00,9,WeatherCatV1.20B785,2013-07-26 00:17:00,
2013-07-25 20:22:00,69.9,60.8,30.02,NW,322,0.0,0.0,73,0.00,,,0.00,7,WeatherCatV1.20B785,2013-07-26 00:22:00,
2013-07-25 20:27:00,69.4,61.1,30.02,NW,322,0.0,0.0,75,0.00,,,0.00,5,WeatherCatV1.20B785,2013-07-26 00:27:00,
2013-07-25 20:32:00,69.0,61.1,30.02,NW,322,0.0,0.0,76,0.00,,,0.00,0,WeatherCatV1.20B785,2013-07-26 00:32:00,
2013-07-25 20:37:00,68.6,61.1,30.02,NW,322,0.0,0.0,77,0.00,,,0.00,0,WeatherCatV1.20B785,2013-07-26 00:37:00,
2013-07-25 20:42:00,68.0,60.5,30.02,NW,322,0.0,0.0,77,0.00,,,0.00,0,WeatherCatV1.20B785,2013-07-26 00:42:00,
2013-07-25 20:47:00,67.6,60.5,30.02,NW,322,0.0,0.0,78,0.00,,,0.00,0,WeatherCatV1.20B785,2013-07-26 00:47:00,
2013-07-25 20:52:00,67.1,60.4,30.02,NW,322,0.0,0.0,79,0.00,,,0.00,0,WeatherCatV1.20B785,2013-07-26 00:52:00,
2013-07-25 20:57:00,66.5,59.8,30.02,NW,322,0.0,0.0,79,0.00,,,0.00,0,WeatherCatV1.20B785,2013-07-26 00:57:00,
2013-07-25 21:02:00,65.9,59.5,30.02,NW,322,0.0,0.0,80,0.00,,,0.00,0,WeatherCatV1.20B785,2013-07-26 01:02:00,
2013-07-25 21:07:00,65.4,59.4,30.02,NW,322,0.0,0.0,81,0.00,,,0.00,0,WeatherCatV1.20B785,2013-07-26 01:07:00,
2013-07-25 21:12:00,65.0,59.0,30.02,NW,322,0.0,0.0,81,0.00,,,0.00,0,WeatherCatV1.20B785,2013-07-26 01:12:00,
2013-07-25 21:17:00,64.6,59.0,30.03,NW,322,0.0,0.0,82,0.00,,,0.00,0,WeatherCatV1.20B785,2013-07-26 01:17:00,
2013-07-25 21:22:00,64.1,58.8,30.03,NW,322,0.0,0.0,83,0.00,,,0.00,0,WeatherCatV1.20B785,2013-07-26 01:22:00,
2013-07-25 21:27:00,63.5,58.6,30.03,NW,322,0.0,0.0,84,0.00,,,0.00,0,WeatherCatV1.20B785,2013-07-26 01:27:00,
2013-07-25 21:32:00,63.1,58.2,30.03,NW,322,0.0,0.0,84,0.00,,,0.00,0,WeatherCatV1.20B785,2013-07-26 01:32:00,
2013-07-25 21:37:00,62.7,57.8,30.03,NW,322,0.0,0.0,84,0.00,,,0.00,0,WeatherCatV1.20B785,2013-07-26 01:37:00,
2013-07-25 21:42:00,62.3,57.7,30.03,NW,322,0.0,0.0,85,0.00,,,0.00,0,WeatherCatV1.20B785,2013-07-26 01:42:00,
2013-07-25 21:47:00,61.9,57.7,30.04,NW,322,0.0,1.0,86,0.00,,,0.00,0,WeatherCatV1.20B785,2013-07-26 01:47:00,
2013-07-25 21:52:00,61.4,57.2,30.04,NW,322,0.0,1.0,86,0.00,,,0.00,0,WeatherCatV1.20B785,2013-07-26 01:52:00,
2013-07-25 21:57:00,61.1,56.9,30.04,NW,322,0.0,0.0,86,0.00,,,0.00,0,WeatherCatV1.20B785,2013-07-26 01:57:00,
2013-07-25 22:02:00,60.8,56.6,30.04,NW,322,0.0,0.0,86,0.00,,,0.00,0,WeatherCatV1.20B785,2013-07-26 02:02:00,
2013-07-25 22:07:00,60.7,56.5,30.04,NW,322,0.0,0.0,86,0.00,,,0.00,0,WeatherCatV1.20B785,2013-07-26 02:07:00,
2013-07-25 22:12:00,60.5,56.3,30.04,NW,322,0.0,0.0,86,0.00,,,0.00,0,WeatherCatV1.20B785,2013-07-26 02:12:00,
2013-07-25 22:17:00,60.4,56.2,30.04,NW,322,0.0,0.0,86,0.00,,,0.00,0,WeatherCatV1.20B785,2013-07-26 02:17:00,
2013-07-25 22:22:00,60.2,56.0,30.04,NW,322,0.0,0.0,86,0.00,,,0.00,0,WeatherCatV1.20B785,2013-07-26 02:22:00,
2013-07-25 22:27:00,60.0,55.8,30.04,NW,322,0.0,0.0,86,0.00,,,0.00,0,WeatherCatV1.20B785,2013-07-26 02:27:00,
2013-07-25 22:32:00,59.8,55.6,30.04,NW,322,0.0,1.0,86,0.00,,,0.00,0,WeatherCatV1.20B785,2013-07-26 02:32:00,
2013-07-25 22:37:00,59.5,55.3,30.04,NW,322,0.0,0.0,86,0.00,,,0.00,0,WeatherCatV1.20B785,2013-07-26 02:37:00,
2013-07-25 22:42:00,59.3,55.1,30.05,NW,322,0.0,0.0,86,0.00,,,0.00,0,WeatherCatV1.20B785,2013-07-26 02:42:00,
2013-07-25 22:47:00,59.0,55.1,30.05,NW,322,0.0,0.0,87,0.00,,,0.00,0,WeatherCatV1.20B785,2013-07-26 02:47:00,
2013-07-25 22:52:00,58.8,54.6,30.05,NW,322,0.0,0.0,86,0.00,,,0.00,0,WeatherCatV1.20B785,2013-07-26 02:52:00,
2013-07-25 22:58:00,58.7,54.5,30.05,NW,322,0.0,0.0,86,0.00,,,0.00,0,WeatherCatV1.20B785,2013-07-26 02:58:00,
2013-07-25 23:03:00,58.5,54.3,30.05,NW,322,0.0,0.0,86,0.00,,,0.00,0,WeatherCatV1.20B785,2013-07-26 03:03:00,
2013-07-25 23:08:00,58.4,54.2,30.05,NW,322,0.0,0.0,86,0.00,,,0.00,0,WeatherCatV1.20B785,2013-07-26 03:08:00,
2013-07-25 23:13:00,58.3,54.4,30.05,NW,322,0.0,0.0,87,0.00,,,0.00,0,WeatherCatV1.20B785,2013-07-26 03:13:00,
2013-07-25 23:18:00,58.2,54.0,30.05,NW,322,0.0,0.0,86,0.00,,,0.00,0,WeatherCatV1.20B785,2013-07-26 03:18:00,
2013-07-25 23:23:00,58.1,53.9,30.05,NW,322,0.0,0.0,86,0.00,,,0.00,0,WeatherCatV1.20B785,2013-07-26 03:23:00,
2013-07-25 23:28:00,57.8,53.6,30.05,NW,322,0.0,0.0,86,0.00,,,0.00,0,WeatherCatV1.20B785,2013-07-26 03:28:00,
2013-07-25 23:33:00,57.6,53.8,30.05,NW,322,0.0,0.0,87,0.00,,,0.00,0,WeatherCatV1.20B785,2013-07-26 03:33:00,
2013-07-25 23:38:00,57.3,53.2,30.06,NW,322,0.0,0.0,86,0.00,,,0.00,0,WeatherCatV1.20B785,2013-07-26 03:38:00,
2013-07-25 23:43:00,57.3,53.2,30.06,NW,322,0.0,0.0,86,0.00,,,0.00,0,WeatherCatV1.20B785,2013-07-26 03:43:00,
2013-07-25 23:48:00,57.4,53.2,30.06,NW,322,0.0,0.0,86,0.00,,,0.00,0,WeatherCatV1.20B785,2013-07-26 03:48:00,
2013-07-25 23:53:00,57.4,53.2,30.06,NW,322,0.0,0.0,86,0.00,,,0.00,0,WeatherCatV1.20B785,2013-07-26 03:53:00,
2013-07-25 23:58:00,57.4,53.2,30.06,NW,322,0.0,0.0,86,0.00,,,0.00,0,WeatherCatV1.20B785,2013-07-26 03:58:00,